createdAt,value
2018-09-30T00:01:51.962Z,7.60
2018-09-30T00:04:20.150Z,7.50
2018-09-30T00:06:48.322Z,7.40
2018-09-30T00:09:16.493Z,7.40
2018-09-30T00:11:44.675Z,7.30
2018-09-30T00:14:12.855Z,7.20
2018-09-30T00:16:41.047Z,7.10
2018-09-30T00:19:09.220Z,7.10
2018-09-30T00:21:37.398Z,7.10
2018-09-30T00:24:10.959Z,7.00
2018-09-30T00:26:44.692Z,6.90
2018-09-30T00:29:12.871Z,6.80
2018-09-30T00:31:41.044Z,6.80
2018-09-30T00:34:14.728Z,6.70
2018-09-30T00:36:42.926Z,6.60
2018-09-30T00:39:11.115Z,6.60
2018-09-30T00:41:39.302Z,6.60
2018-09-30T00:44:07.494Z,6.70
2018-09-30T00:46:35.690Z,6.70
2018-09-30T00:49:03.900Z,6.70
2018-09-30T00:51:32.160Z,6.80
2018-09-30T00:54:00.361Z,6.80
2018-09-30T00:56:28.562Z,6.70
2018-09-30T00:58:56.832Z,6.80
2018-09-30T01:01:24.974Z,6.60
2018-09-30T01:03:53.181Z,6.60
2018-09-30T01:06:21.865Z,6.50
2018-09-30T01:08:50.050Z,6.50
2018-09-30T01:11:18.214Z,6.60
2018-09-30T01:13:46.378Z,6.60
2018-09-30T01:16:14.558Z,6.50
2018-09-30T01:18:42.730Z,6.40
2018-09-30T01:21:10.905Z,6.30
2018-09-30T01:23:39.127Z,6.30
2018-09-30T01:26:07.318Z,6.20
2018-09-30T01:28:35.519Z,6.20
2018-09-30T01:31:03.746Z,6.30
2018-09-30T01:33:32.045Z,6.30
2018-09-30T01:36:00.252Z,6.30
2018-09-30T01:38:28.458Z,6.40
2018-09-30T01:40:56.750Z,6.40
2018-09-30T01:43:24.942Z,6.40
2018-09-30T01:45:53.178Z,6.30
2018-09-30T01:48:21.362Z,6.20
2018-09-30T01:50:49.553Z,6.30
2018-09-30T01:53:17.757Z,6.30
2018-09-30T01:55:45.936Z,6.40
2018-09-30T01:58:14.090Z,6.40
2018-09-30T02:00:42.268Z,6.30
2018-09-30T02:03:10.422Z,6.20
2018-09-30T02:05:38.604Z,6.20
2018-09-30T02:08:06.783Z,6.20
2018-09-30T02:10:34.945Z,6.20
2018-09-30T02:13:03.075Z,6.20
2018-09-30T02:15:31.201Z,6.10
2018-09-30T02:17:59.337Z,6.10
2018-09-30T02:20:27.499Z,6.10
2018-09-30T02:22:55.634Z,6.10
2018-09-30T02:25:23.781Z,6.00
2018-09-30T02:27:51.918Z,5.90
2018-09-30T02:30:20.044Z,5.90
2018-09-30T02:32:48.193Z,5.90
2018-09-30T02:35:16.348Z,5.90
2018-09-30T02:37:44.472Z,5.70
2018-09-30T02:40:12.602Z,5.60
2018-09-30T02:42:40.811Z,5.40
2018-09-30T02:45:08.938Z,5.40
2018-09-30T02:47:37.065Z,5.30
2018-09-30T02:50:05.303Z,5.20
2018-09-30T02:52:33.497Z,5.20
2018-09-30T02:55:01.640Z,5.20
2018-09-30T02:57:29.805Z,5.10
2018-09-30T02:59:57.926Z,5.10
2018-09-30T03:02:26.050Z,5.20
2018-09-30T03:04:54.175Z,5.20
2018-09-30T03:07:27.884Z,5.20
2018-09-30T03:09:56.017Z,5.20
2018-09-30T03:12:24.221Z,5.20
2018-09-30T03:14:52.374Z,5.20
2018-09-30T03:17:20.538Z,5.20
2018-09-30T03:19:48.662Z,5.30
2018-09-30T03:22:16.790Z,5.20
2018-09-30T03:24:44.930Z,5.30
2018-09-30T03:27:13.074Z,5.30
2018-09-30T03:29:41.425Z,5.30
2018-09-30T03:32:09.611Z,5.30
2018-09-30T03:34:37.779Z,5.40
2018-09-30T03:37:05.974Z,5.40
2018-09-30T03:39:34.183Z,5.40
2018-09-30T03:42:02.329Z,5.40
2018-09-30T03:44:30.520Z,5.40
2018-09-30T03:46:58.716Z,5.50
2018-09-30T03:49:26.893Z,5.50
2018-09-30T03:51:55.139Z,5.50
2018-09-30T03:54:23.391Z,5.50
2018-09-30T03:56:51.560Z,5.40
2018-09-30T03:59:19.733Z,5.30
2018-09-30T04:01:47.906Z,5.20
2018-09-30T04:04:16.103Z,5.00
2018-09-30T04:06:44.316Z,4.90
2018-09-30T04:09:12.501Z,4.90
2018-09-30T04:11:40.696Z,4.90
2018-09-30T04:14:08.931Z,4.90
2018-09-30T04:16:37.120Z,4.90
2018-09-30T04:19:05.408Z,4.90
2018-09-30T04:21:33.646Z,4.90
2018-09-30T04:24:07.150Z,5.00
2018-09-30T04:26:35.355Z,5.00
2018-09-30T04:29:03.790Z,5.10
2018-09-30T04:31:32.264Z,5.10
2018-09-30T04:34:00.955Z,5.00
2018-09-30T04:36:29.428Z,5.00
2018-09-30T04:38:57.691Z,5.00
2018-09-30T04:41:25.894Z,5.00
2018-09-30T04:43:54.107Z,4.90
2018-09-30T04:46:22.251Z,4.80
2018-09-30T04:48:50.409Z,4.80
2018-09-30T04:51:18.566Z,4.70
2018-09-30T04:53:46.718Z,4.60
2018-09-30T04:56:14.878Z,4.50
2018-09-30T04:58:43.025Z,4.50
2018-09-30T05:01:11.190Z,4.50
2018-09-30T05:03:39.329Z,4.50
2018-09-30T05:06:07.584Z,4.50
2018-09-30T05:08:35.762Z,4.70
2018-09-30T05:11:03.893Z,4.80
2018-09-30T05:13:32.060Z,4.70
2018-09-30T05:16:00.270Z,4.50
2018-09-30T05:18:28.424Z,4.30
2018-09-30T05:20:56.577Z,4.30
2018-09-30T05:23:24.727Z,4.30
2018-09-30T05:25:53.190Z,4.30
2018-09-30T05:28:21.333Z,4.40
2018-09-30T05:30:50.126Z,4.40
2018-09-30T05:33:18.320Z,4.40
2018-09-30T05:35:46.490Z,4.30
2018-09-30T05:38:14.666Z,4.40
2018-09-30T05:40:42.827Z,4.40
2018-09-30T05:43:11.031Z,4.50
2018-09-30T05:45:39.190Z,4.50
2018-09-30T05:48:07.314Z,4.60
2018-09-30T05:50:35.469Z,4.60
2018-09-30T05:53:03.606Z,4.60
2018-09-30T05:55:31.776Z,4.70
2018-09-30T05:58:00.044Z,4.60
2018-09-30T06:00:28.086Z,4.70
2018-09-30T06:02:56.265Z,4.80
2018-09-30T06:05:24.382Z,5.10
2018-09-30T06:07:52.490Z,5.40
2018-09-30T06:10:20.634Z,5.60
2018-09-30T06:12:48.759Z,6.00
2018-09-30T06:15:16.893Z,6.40
2018-09-30T06:17:45.037Z,6.70
2018-09-30T06:20:13.203Z,6.80
2018-09-30T06:22:41.353Z,7.10
2018-09-30T06:25:09.482Z,7.30
2018-09-30T06:27:37.642Z,7.50
2018-09-30T06:30:05.818Z,7.90
2018-09-30T06:32:33.962Z,8.40
2018-09-30T06:35:02.104Z,8.70
2018-09-30T06:37:30.258Z,8.90
2018-09-30T06:39:58.466Z,9.20
2018-09-30T06:42:26.617Z,9.60
2018-09-30T06:44:54.864Z,10.00
2018-09-30T06:47:22.978Z,10.10
2018-09-30T06:49:51.210Z,10.30
2018-09-30T06:52:19.383Z,10.70
2018-09-30T06:54:47.513Z,10.30
2018-09-30T06:57:15.657Z,10.40
2018-09-30T06:59:43.803Z,10.20
2018-09-30T07:02:11.971Z,10.30
2018-09-30T07:04:40.106Z,10.00
2018-09-30T07:07:08.240Z,10.20
2018-09-30T07:09:36.379Z,10.10
2018-09-30T07:12:04.546Z,10.30
2018-09-30T07:14:32.678Z,10.50
2018-09-30T07:17:00.911Z,10.80
2018-09-30T07:22:03.474Z,11.00
2018-09-30T07:24:31.643Z,11.10
2018-09-30T07:26:59.783Z,11.20
2018-09-30T07:29:27.926Z,11.10
2018-09-30T07:31:56.090Z,11.10
2018-09-30T07:34:24.244Z,11.40
2018-09-30T07:36:52.470Z,11.60
2018-09-30T07:39:20.605Z,11.80
2018-09-30T07:41:48.758Z,11.50
2018-09-30T07:44:16.905Z,11.70
2018-09-30T07:46:45.173Z,12.30
2018-09-30T07:49:19.840Z,12.90
2018-09-30T07:51:47.978Z,13.50
2018-09-30T07:54:16.118Z,13.90
2018-09-30T07:56:44.285Z,14.20
2018-09-30T07:59:12.431Z,14.50
2018-09-30T08:01:40.590Z,14.80
2018-09-30T08:04:08.757Z,15.20
2018-09-30T08:06:36.945Z,15.20
2018-09-30T08:09:06.842Z,15.00
2018-09-30T08:11:35.047Z,14.90
2018-09-30T08:14:03.220Z,15.10
2018-09-30T08:16:31.435Z,15.20
2018-09-30T08:18:59.578Z,15.50
2018-09-30T08:21:27.725Z,15.90
2018-09-30T08:23:55.974Z,16.10
2018-09-30T08:26:24.091Z,16.10
2018-09-30T08:28:52.245Z,16.20
2018-09-30T08:31:20.405Z,16.20
2018-09-30T08:33:48.570Z,16.20
2018-09-30T08:36:23.395Z,16.40
2018-09-30T08:38:51.575Z,16.20
2018-09-30T08:41:19.758Z,16.50
2018-09-30T08:43:47.967Z,16.80
2018-09-30T08:46:16.139Z,17.10
2018-09-30T08:48:44.295Z,17.30
2018-09-30T08:51:12.465Z,17.60
2018-09-30T08:53:40.602Z,17.70
2018-09-30T08:56:08.776Z,17.30
2018-09-30T08:58:36.925Z,17.60
2018-09-30T09:01:05.088Z,18.00
2018-09-30T09:03:33.293Z,18.00
2018-09-30T09:06:01.518Z,18.20
2018-09-30T09:08:29.676Z,18.60
2018-09-30T09:10:57.833Z,19.00
2018-09-30T09:13:26.003Z,19.20
2018-09-30T09:15:54.198Z,19.10
2018-09-30T09:18:22.389Z,19.40
2018-09-30T09:20:50.547Z,19.60
2018-09-30T09:23:18.738Z,19.50
2018-09-30T09:25:46.907Z,19.60
2018-09-30T09:28:15.079Z,19.30
2018-09-30T09:30:43.234Z,19.10
2018-09-30T09:33:11.480Z,19.20
2018-09-30T09:35:39.599Z,19.30
2018-09-30T09:38:07.758Z,19.00
2018-09-30T09:40:35.905Z,19.20
2018-09-30T09:43:04.077Z,19.30
2018-09-30T09:45:32.211Z,19.30
2018-09-30T09:48:00.354Z,19.20
2018-09-30T09:50:28.469Z,19.10
2018-09-30T09:52:56.614Z,19.00
2018-09-30T09:55:24.735Z,19.20
2018-09-30T09:57:52.850Z,19.60
2018-09-30T10:00:26.425Z,20.10
2018-09-30T10:02:54.542Z,20.40
2018-09-30T10:05:22.659Z,20.70
2018-09-30T10:07:50.798Z,20.70
2018-09-30T10:10:18.945Z,20.40
2018-09-30T10:12:47.288Z,20.50
2018-09-30T10:15:15.435Z,20.70
2018-09-30T10:17:43.555Z,21.00
2018-09-30T10:20:11.677Z,21.30
2018-09-30T10:22:39.808Z,21.70
2018-09-30T10:25:07.937Z,21.70
2018-09-30T10:27:36.133Z,21.60
2018-09-30T10:30:04.412Z,21.70
2018-09-30T10:32:32.662Z,22.20
2018-09-30T10:35:00.821Z,22.20
2018-09-30T10:37:28.945Z,22.20
2018-09-30T10:39:57.119Z,22.40
2018-09-30T10:42:25.309Z,22.60
2018-09-30T10:44:53.485Z,22.10
2018-09-30T10:47:21.918Z,22.20
2018-09-30T10:49:50.067Z,22.10
2018-09-30T10:52:18.253Z,22.30
2018-09-30T10:54:46.401Z,22.40
2018-09-30T10:57:14.533Z,22.40
2018-09-30T10:59:42.698Z,22.70
2018-09-30T11:02:10.833Z,22.90
2018-09-30T11:04:38.973Z,23.20
2018-09-30T11:07:07.122Z,23.30
2018-09-30T11:09:35.281Z,23.60
2018-09-30T11:12:03.434Z,24.00
2018-09-30T11:14:31.602Z,24.30
2018-09-30T11:16:59.738Z,24.50
2018-09-30T11:19:27.923Z,24.60
2018-09-30T11:21:56.094Z,24.90
2018-09-30T11:24:24.286Z,25.20
2018-09-30T11:26:52.474Z,25.70
2018-09-30T11:29:20.610Z,25.90
2018-09-30T11:31:48.801Z,26.00
2018-09-30T11:34:16.910Z,26.20
2018-09-30T11:36:45.109Z,26.20
2018-09-30T11:39:13.570Z,26.40
2018-09-30T11:41:42.745Z,26.00
2018-09-30T11:44:11.165Z,25.80
2018-09-30T11:46:39.486Z,25.70
2018-09-30T11:49:08.011Z,25.50
2018-09-30T11:51:36.169Z,25.70
2018-09-30T11:54:04.410Z,25.70
2018-09-30T11:56:32.720Z,24.90
2018-09-30T11:59:01.211Z,24.80
2018-09-30T12:01:29.342Z,24.50
2018-09-30T12:03:57.506Z,23.90
2018-09-30T12:06:25.742Z,24.10
2018-09-30T12:08:54.059Z,24.40
2018-09-30T12:11:22.227Z,24.80
2018-09-30T12:13:50.387Z,25.20
2018-09-30T12:16:18.609Z,25.20
2018-09-30T12:18:46.843Z,24.20
2018-09-30T12:21:15.014Z,24.20
2018-09-30T12:23:43.137Z,24.80
2018-09-30T12:26:11.292Z,25.40
2018-09-30T12:28:39.466Z,25.90
2018-09-30T12:31:07.602Z,26.40
2018-09-30T12:33:35.750Z,26.10
2018-09-30T12:36:03.946Z,26.40
2018-09-30T12:38:32.112Z,26.60
2018-09-30T12:41:00.298Z,26.70
2018-09-30T12:43:28.465Z,26.90
2018-09-30T12:45:56.647Z,26.90
2018-09-30T12:48:24.861Z,26.90
2018-09-30T12:50:53.052Z,27.10
2018-09-30T12:53:21.240Z,27.20
2018-09-30T12:55:49.407Z,26.60
2018-09-30T12:58:17.560Z,26.30
2018-09-30T13:00:45.734Z,26.30
2018-09-30T13:03:13.890Z,26.50
2018-09-30T13:05:42.073Z,26.70
2018-09-30T13:08:10.250Z,26.90
2018-09-30T13:10:38.482Z,27.10
2018-09-30T13:13:06.710Z,27.30
2018-09-30T13:15:34.911Z,27.40
2018-09-30T13:18:03.078Z,27.30
2018-09-30T13:20:31.251Z,27.30
2018-09-30T13:22:59.392Z,27.30
2018-09-30T13:25:27.564Z,27.30
2018-09-30T13:27:55.722Z,27.30
2018-09-30T13:30:23.883Z,27.20
2018-09-30T13:32:52.110Z,27.00
2018-09-30T13:35:20.262Z,26.60
2018-09-30T13:37:48.443Z,26.70
2018-09-30T13:40:16.818Z,26.60
2018-09-30T13:42:44.791Z,26.60
2018-09-30T13:45:12.965Z,26.80
2018-09-30T13:47:41.150Z,26.80
2018-09-30T13:50:09.307Z,26.60
2018-09-30T13:52:37.498Z,26.50
2018-09-30T13:55:05.657Z,26.70
2018-09-30T13:57:33.844Z,26.80
2018-09-30T14:00:02.023Z,26.80
2018-09-30T14:02:30.162Z,26.80
2018-09-30T14:04:58.326Z,26.90
2018-09-30T14:07:26.495Z,26.90
2018-09-30T14:09:54.625Z,26.90
2018-09-30T14:12:22.760Z,26.90
2018-09-30T14:14:50.901Z,26.80
2018-09-30T14:17:19.070Z,26.50
2018-09-30T14:19:47.218Z,26.50
2018-09-30T14:22:15.377Z,26.50
2018-09-30T14:24:43.519Z,26.50
2018-09-30T14:27:11.687Z,26.50
2018-09-30T14:29:39.856Z,26.40
2018-09-30T14:32:08.029Z,26.30
2018-09-30T14:34:36.235Z,26.10
2018-09-30T14:37:04.423Z,26.00
2018-09-30T14:39:32.592Z,25.80
2018-09-30T14:42:01.878Z,25.60
2018-09-30T14:44:30.221Z,25.60
2018-09-30T14:46:58.474Z,25.60
2018-09-30T14:49:26.675Z,25.70
2018-09-30T14:51:54.894Z,25.50
2018-09-30T14:54:23.126Z,25.30
2018-09-30T14:56:51.950Z,25.00
2018-09-30T14:59:20.175Z,24.80
2018-09-30T15:01:48.374Z,24.70
2018-09-30T15:04:16.579Z,24.50
2018-09-30T15:06:44.781Z,24.40
2018-09-30T15:09:12.948Z,24.30
2018-09-30T15:11:41.286Z,24.30
2018-09-30T15:14:09.512Z,24.40
2018-09-30T15:16:37.833Z,24.40
2018-09-30T15:19:06.051Z,24.30
2018-09-30T15:21:34.270Z,24.30
2018-09-30T15:24:02.548Z,24.20
2018-09-30T15:26:30.799Z,24.00
2018-09-30T15:28:59.049Z,23.80
2018-09-30T15:31:27.230Z,23.70
2018-09-30T15:36:30.139Z,23.40
2018-09-30T15:38:58.463Z,23.40
2018-09-30T15:41:26.825Z,23.40
2018-09-30T15:43:55.165Z,23.30
2018-09-30T15:46:23.491Z,23.00
2018-09-30T15:48:51.832Z,22.80
2018-09-30T15:51:20.561Z,22.70
2018-09-30T15:53:48.989Z,22.40
2018-09-30T15:56:17.255Z,22.30
2018-09-30T15:58:45.585Z,22.20
2018-09-30T16:01:14.962Z,22.10
2018-09-30T16:03:43.320Z,22.00
2018-09-30T16:06:11.520Z,22.00
2018-09-30T16:08:39.860Z,21.80
2018-09-30T16:11:08.103Z,21.80
2018-09-30T16:13:36.501Z,21.80
2018-09-30T16:16:04.914Z,21.70
2018-09-30T16:18:33.287Z,21.70
2018-09-30T16:21:01.702Z,21.60
2018-09-30T16:23:30.074Z,21.60
2018-09-30T16:25:58.364Z,21.50
2018-09-30T16:28:26.670Z,21.40
2018-09-30T16:30:55.045Z,21.30
2018-09-30T16:33:23.398Z,21.20
2018-09-30T16:35:51.807Z,21.00
2018-09-30T16:38:20.107Z,20.90
2018-09-30T16:40:48.712Z,20.80
2018-09-30T16:43:17.127Z,20.70
2018-09-30T16:45:45.599Z,20.60
2018-09-30T16:48:13.963Z,20.50
2018-09-30T16:50:42.437Z,20.40
2018-09-30T16:53:10.948Z,20.30
2018-09-30T16:55:39.231Z,20.20
2018-09-30T16:58:07.495Z,20.10
2018-09-30T17:00:35.814Z,19.90
2018-09-30T17:03:04.210Z,19.90
2018-09-30T17:49:48.971Z,18.50
2018-09-30T17:52:18.640Z,18.30
2018-09-30T17:54:49.087Z,18.20
2018-09-30T17:57:17.719Z,18.20
2018-09-30T17:59:48.198Z,18.10
2018-09-30T18:02:16.580Z,18.00
2018-09-30T18:04:44.943Z,17.90
2018-09-30T18:07:13.210Z,17.90
2018-09-30T18:09:41.600Z,17.80
2018-09-30T18:12:09.987Z,17.80
2018-09-30T18:14:38.367Z,17.70
2018-09-30T18:17:06.656Z,17.60
2018-09-30T18:19:34.887Z,17.60
2018-09-30T18:22:03.250Z,17.60
2018-09-30T18:24:31.515Z,17.50
2018-09-30T18:26:59.968Z,17.50
2018-09-30T18:29:28.183Z,17.40
2018-09-30T18:31:56.700Z,17.30
2018-09-30T18:34:25.026Z,17.20
2018-09-30T18:36:53.358Z,17.20
2018-09-30T18:39:21.575Z,17.10
2018-09-30T18:41:49.842Z,17.10
2018-09-30T18:44:18.074Z,17.10
2018-09-30T18:46:46.370Z,17.00
2018-09-30T18:49:14.615Z,16.90
2018-09-30T18:51:42.977Z,16.80
2018-09-30T18:54:11.178Z,16.90
2018-09-30T18:56:39.362Z,16.90
2018-09-30T18:59:07.947Z,16.70
2018-09-30T19:01:36.279Z,16.50
2018-09-30T19:04:04.821Z,16.40
2018-09-30T19:06:33.174Z,16.30
2018-09-30T19:09:01.816Z,16.20
2018-09-30T19:11:30.363Z,16.10
2018-09-30T19:13:58.759Z,16.00
2018-09-30T19:16:27.085Z,15.90
2018-09-30T19:18:55.413Z,15.80
2018-09-30T19:21:23.646Z,15.70
2018-09-30T19:23:52.087Z,15.70
2018-09-30T19:26:20.388Z,15.60
2018-09-30T19:28:48.867Z,15.60
2018-09-30T19:31:17.179Z,15.50
2018-09-30T19:33:45.509Z,15.50
2018-09-30T19:36:13.783Z,15.40
2018-09-30T19:38:42.003Z,15.30
2018-09-30T19:41:10.246Z,15.30
2018-09-30T19:43:38.555Z,15.20
2018-09-30T19:46:07.072Z,15.10
2018-09-30T19:48:35.343Z,15.00
2018-09-30T19:51:03.500Z,15.00
2018-09-30T19:53:31.698Z,14.90
2018-09-30T19:55:59.878Z,14.90
2018-09-30T19:58:28.099Z,14.80
2018-09-30T20:00:56.354Z,14.70
2018-09-30T20:03:24.456Z,14.70
2018-09-30T20:05:52.725Z,14.60
2018-09-30T20:08:20.935Z,14.60
2018-09-30T20:10:49.141Z,14.60
2018-09-30T20:13:17.296Z,14.50
2018-09-30T20:15:45.492Z,14.50
2018-09-30T20:18:13.640Z,14.40
2018-09-30T20:20:41.890Z,14.40
2018-09-30T20:23:10.081Z,14.40
2018-09-30T20:25:38.220Z,14.30
2018-09-30T20:28:06.403Z,14.20
2018-09-30T20:30:34.566Z,14.20
2018-09-30T20:33:02.779Z,14.10
2018-09-30T20:35:30.915Z,14.10
2018-09-30T20:37:59.157Z,14.10
2018-09-30T20:40:27.364Z,14.10
2018-09-30T20:42:55.580Z,14.10
2018-09-30T20:45:23.755Z,14.00
2018-09-30T20:47:51.947Z,13.90
2018-09-30T20:50:20.116Z,13.80
2018-09-30T20:52:48.294Z,13.70
2018-09-30T20:55:16.495Z,13.70
2018-09-30T20:57:44.658Z,13.60
2018-09-30T21:00:12.898Z,13.60
2018-09-30T21:02:41.065Z,13.50
2018-09-30T21:05:22.899Z,13.50
2018-09-30T21:07:51.319Z,13.40
2018-09-30T21:10:19.593Z,13.40
2018-09-30T21:12:47.719Z,13.50
2018-09-30T21:15:15.943Z,13.50
2018-09-30T21:17:44.103Z,13.50
2018-09-30T21:20:12.283Z,13.60
2018-09-30T21:22:40.441Z,13.60
2018-09-30T21:25:08.622Z,13.50
2018-09-30T21:27:36.777Z,13.50
2018-09-30T21:30:05.507Z,13.50
2018-09-30T21:32:33.705Z,13.50
2018-09-30T21:35:02.047Z,13.40
2018-09-30T21:37:30.226Z,13.50
2018-09-30T21:39:58.408Z,13.50
2018-09-30T21:42:26.553Z,13.50
2018-09-30T21:44:54.697Z,13.40
2018-09-30T21:47:22.846Z,13.20
2018-09-30T21:49:51.174Z,13.10
2018-09-30T21:52:19.294Z,13.10
2018-09-30T21:54:47.458Z,13.10
2018-09-30T21:57:15.592Z,13.20
2018-09-30T21:59:43.740Z,13.20
2018-09-30T22:02:11.879Z,13.30
2018-09-30T22:04:40.015Z,13.40
2018-09-30T22:07:08.146Z,13.40
2018-09-30T22:09:36.295Z,13.50
2018-09-30T22:12:04.448Z,13.50
2018-09-30T22:14:32.616Z,13.50
2018-09-30T22:17:00.756Z,13.40
2018-09-30T22:19:28.896Z,13.40
2018-09-30T22:21:57.049Z,13.40
2018-09-30T22:24:25.213Z,13.40
2018-09-30T22:26:53.385Z,13.40
2018-09-30T22:29:21.575Z,13.40
2018-09-30T22:31:49.710Z,13.40
2018-09-30T22:34:17.836Z,13.40
2018-09-30T22:36:45.978Z,13.40
2018-09-30T22:39:14.133Z,13.40
2018-09-30T22:41:42.269Z,13.30
2018-09-30T22:44:10.391Z,13.40
2018-09-30T22:46:38.822Z,13.40
2018-09-30T22:49:07.048Z,13.40
2018-09-30T22:51:35.206Z,13.30
2018-09-30T22:54:03.349Z,13.30
2018-09-30T22:56:31.494Z,13.30
2018-09-30T22:58:59.647Z,13.30
2018-09-30T23:01:27.803Z,13.30
2018-09-30T23:03:55.929Z,13.10
2018-09-30T23:06:24.056Z,13.00
2018-09-30T23:08:52.174Z,13.00
2018-09-30T23:11:20.317Z,13.00
2018-09-30T23:13:48.454Z,13.00
2018-09-30T23:16:16.607Z,13.00
2018-09-30T23:18:44.726Z,13.00
2018-09-30T23:21:12.872Z,13.00
2018-09-30T23:23:41.018Z,13.00
2018-09-30T23:26:09.156Z,13.00
2018-09-30T23:28:37.282Z,13.00
2018-09-30T23:31:05.505Z,13.00
2018-09-30T23:33:33.663Z,13.00
2018-09-30T23:36:01.824Z,13.00
2018-09-30T23:38:29.952Z,12.90
2018-09-30T23:40:58.114Z,12.90
2018-09-30T23:43:26.298Z,12.90
2018-09-30T23:45:54.423Z,12.90
2018-09-30T23:48:22.590Z,12.90
2018-09-30T23:50:50.749Z,13.00
2018-09-30T23:53:18.896Z,12.90
2018-09-30T23:55:47.070Z,12.90
2018-09-30T23:58:15.454Z,12.90
